Stations météo

réclame
Mon MeteoGroup
Nimes/Courbessac, France (7645): Température de l'air & dewpoint: 20.01.2020 23:00:00 - 26.01.2020 23:00:00 (CET)Nimes/Courbessac, France (7645): Température de l'air 5cm: 20.01.2020 23:00:00 - 26.01.2020 23:00:00 (CET)Nimes/Courbessac, France (7645): Température de l'air -20cm: 20.01.2020 23:00:00 - 26.01.2020 23:00:00 (CET)Nimes/Courbessac, France (7645): Vitesse du vent & gusts: 20.01.2020 23:00:00 - 26.01.2020 23:00:00 (CET)Nimes/Courbessac, France (7645): Direction du vent: 20.01.2020 23:00:00 - 26.01.2020 23:00:00 (CET)Nimes/Courbessac, France (7645): reduced air pressure: 20.01.2020 23:00:00 - 26.01.2020 23:00:00 (CET)Nimes/Courbessac, France (7645): Ensoleillement: 20.01.2020 23:00:00 - 26.01.2020 23:00:00 (CET)Nimes/Courbessac, France (7645): Quantités de précipitations: 20.01.2020 23:00:00 - 26.01.2020 23:00:00 (CET)
Date & Time tt [°C] td [°C] tt 5cm [°C] tt -20cm [°C] ff [km/h] ff [knt] fx [km/h] fx [knt] dd ppp [hPa] sd [min] rr [mm]
26.01.2020 23:00:00 - - - - - - - - - - - -
26.01.2020 22:00:00 6,1 5,5 3,8 10,1 5 3 9 5 NNW 1021,8 0 0,0
26.01.2020 21:00:00 6,9 6,0 5,1 10,3 3 2 9 5 NNW 1021,8 0 0,0
26.01.2020 20:00:00 8,4 7,5 7,0 10,4 6 3 9 5 NNW 1021,5 0 0,0
26.01.2020 19:00:00 9,9 8,7 8,7 10,4 4 2 7 4 NNW 1021,0 0 0,0
26.01.2020 18:00:00 10,5 8,4 9,2 10,4 0 0 4 2 N 1021,0 0 0,0
26.01.2020 17:00:00 11,6 8,6 11,4 10,3 3 2 9 5 E 1020,6 0 0,0
26.01.2020 16:00:00 12,2 7,9 13,0 10,1 4 2 8 5 SE 1020,4 17 0,0
26.01.2020 15:00:00 12,7 8,2 13,5 9,8 0 0 6 3 N 1020,2 2 0,0
26.01.2020 14:00:00 11,9 8,0 12,9 9,6 3 1 8 5 NW 1020,6 0 0,0
26.01.2020 13:00:00 11,6 8,6 12,4 9,3 4 2 11 6 NW 1021,0 6 0,0
26.01.2020 12:00:00 10,1 8,5 10,3 9,2 0 0 7 4 N 1021,4 0 0,0
26.01.2020 11:00:00 9,4 8,6 8,6 9,2 3 2 10 5 NNE 1021,2 0 0,0
26.01.2020 10:00:00 8,8 8,0 8,4 9,2 8 4 14 8 ENE 1020,5 0 0,0
26.01.2020 09:00:00 8,8 8,0 8,2 9,2 8 4 21 12 NE 1020,1 0 0,0
26.01.2020 08:00:00 8,8 8,0 8,1 9,2 16 8 26 14 NNE 1019,5 0 8,1
26.01.2020 07:00:00 8,9 7,8 8,3 9,3 5 3 27 15 NW 1019,8 0 5,6
26.01.2020 06:00:00 9,4 7,7 8,5 9,4 16 9 35 19 N 1019,0 0 1,4
26.01.2020 05:00:00 9,1 7,4 8,4 9,5 13 7 19 11 ENE 1018,9 0 0,0
26.01.2020 04:00:00 8,8 7,4 7,9 9,6 10 6 19 10 ENE 1019,0 0 0,0
26.01.2020 03:00:00 8,7 7,6 8,0 9,6 13 7 19 10 E 1019,4 0 0,2
26.01.2020 02:00:00 9,2 8,4 8,7 9,6 11 6 18 10 ENE 1019,7 0 0,0
26.01.2020 01:00:00 9,4 8,8 8,9 9,7 9 5 14 8 E 1020,2 0 1,0
26.01.2020 00:00:00 9,8 8,9 9,2 9,7 8 5 15 8 E 1020,8 0 0,2
25.01.2020 23:00:00 9,7 8,8 9,0 9,8 10 5 13 7 E 1020,7 0 0,0
25.01.2020 22:00:00 9,7 8,6 8,7 9,9 5 3 9 5 E 1020,9 0 0,0
25.01.2020 21:00:00 9,8 8,7 8,5 9,9 3 2 6 4 NNE 1021,0 0 0,0
25.01.2020 20:00:00 10,3 8,7 8,9 10,0 2 1 8 5 S 1020,7 0 0,0
25.01.2020 19:00:00 10,8 9,4 8,7 10,0 3 2 11 6 SSW 1020,6 0 0,0
25.01.2020 18:00:00 11,0 9,1 9,2 10,0 3 1 16 9 SSE 1020,1 0 0,0
25.01.2020 17:00:00 12,0 9,0 12,0 9,9 11 6 25 14 S 1020,5 2 0,0
25.01.2020 16:00:00 12,8 9,2 13,7 9,7 16 9 32 17 SSE 1020,7 15 0,0
25.01.2020 15:00:00 13,2 9,6 13,2 9,4 15 8 30 16 S 1021,1 8 0,0
25.01.2020 14:00:00 12,9 10,4 12,8 9,2 13 7 21 11 ESE 1021,5 0 0,0
25.01.2020 13:00:00 11,4 9,8 11,6 9,0 6 4 14 8 E 1022,4 0 0,0
25.01.2020 12:00:00 10,4 9,3 9,8 8,9 9 5 14 7 E 1023,0 0 0,0
25.01.2020 11:00:00 9,7 8,6 9,9 8,8 8 4 19 10 E 1023,0 6 0,0
25.01.2020 10:00:00 9,0 8,4 8,7 8,7 8 4 13 7 NE 1022,6 3 0,0
25.01.2020 09:00:00 8,6 8,2 8,1 8,7 5 3 10 6 NNE 1022,5 0 0,6
25.01.2020 08:00:00 8,4 7,8 7,9 8,8 0 0 8 4 N 1022,2 0 0,2
25.01.2020 07:00:00 8,4 7,8 8,0 8,8 4 2 10 6 E 1022,0 0 0,8
25.01.2020 06:00:00 8,7 8,1 8,1 8,8 2 1 5 3 NNE 1021,6 0 0,8
25.01.2020 05:00:00 8,8 8,0 8,0 8,8 0 0 9 5 N 1021,9 0 0,2
25.01.2020 04:00:00 8,7 7,8 8,0 8,8 0 0 7 4 N 1022,2 0 0,0
25.01.2020 03:00:00 8,8 7,9 8,0 8,8 5 3 8 4 NNW 1022,2 0 0,0
25.01.2020 02:00:00 8,7 7,9 8,0 8,9 0 0 5 3 N 1022,3 0 0,0
25.01.2020 01:00:00 8,9 7,8 8,2 8,9 3 2 11 6 E 1022,7 0 0,0
25.01.2020 00:00:00 9,1 7,9 8,0 8,9 8 4 12 6 NNW 1022,7 0 0,0
24.01.2020 23:00:00 9,4 7,8 8,3 9,0 8 4 14 8 NNW 1022,8 0 0,0
24.01.2020 22:00:00 9,4 7,7 8,4 9,0 7 4 13 7 NNW 1022,9 0 0,0
24.01.2020 21:00:00 9,3 7,7 8,3 9,0 8 4 13 7 NNW 1023,0 0 0,0
24.01.2020 20:00:00 9,2 8,0 8,2 9,1 6 4 11 6 NNW 1022,8 0 0,0
24.01.2020 19:00:00 9,2 8,1 8,2 9,1 5 3 10 6 N 1022,4 0 0,0
24.01.2020 18:00:00 9,8 8,7 9,1 9,0 5 3 9 5 NNW 1022,2 0 0,0
24.01.2020 17:00:00 10,4 8,7 9,6 8,9 5 3 7 4 NNW 1022,0 0 0,2
24.01.2020 16:00:00 10,7 7,9 10,4 8,8 5 3 8 5 NE 1021,9 0 0,0
24.01.2020 15:00:00 10,6 7,3 9,9 8,7 8 4 15 8 NE 1022,0 0 0,0
24.01.2020 14:00:00 9,9 7,8 8,8 8,6 5 3 18 10 NE 1022,6 0 1,2
24.01.2020 13:00:00 10,0 7,9 9,4 8,4 8 5 15 8 NE 1023,4 0 0,2
24.01.2020 12:00:00 9,3 7,9 8,5 8,4 5 3 13 7 NNW 1024,1 0 2,4
24.01.2020 11:00:00 9,3 7,4 8,3 8,4 4 2 20 11 NNW 1024,4 0 2,4
24.01.2020 10:00:00 11,0 5,3 10,6 8,3 12 7 20 11 NNE 1023,8 0 0,0
24.01.2020 09:00:00 10,9 5,2 10,5 8,3 12 6 18 10 NNE 1023,6 0 0,0
24.01.2020 08:00:00 11,0 4,7 9,9 8,3 10 6 16 9 NNE 1023,3 0 0,0
24.01.2020 07:00:00 10,7 5,0 9,7 8,4 6 4 15 8 N 1023,1 0 0,0
24.01.2020 06:00:00 10,7 5,2 9,8 8,4 9 5 17 9 NNE 1023,0 0 0,0
24.01.2020 05:00:00 10,6 5,6 9,6 8,5 13 7 20 11 NNE 1023,1 0 0,0
24.01.2020 04:00:00 10,7 6,6 9,3 8,4 7 4 13 7 N 1023,6 0 0,0
24.01.2020 03:00:00 10,8 7,1 9,6 8,5 11 6 20 11 NE 1024,1 0 0,0
24.01.2020 02:00:00 10,5 7,0 8,4 8,5 9 5 16 9 NE 1024,5 0 0,0
24.01.2020 01:00:00 11,1 6,6 9,2 8,5 8 4 13 7 NE 1025,0 0 0,0
24.01.2020 00:00:00 11,6 6,7 10,1 8,5 7 4 13 7 N 1025,4 0 0,0
23.01.2020 23:00:00 11,4 7,3 10,4 8,5 6 3 13 7 NE 1025,4 0 0,0
23.01.2020 22:00:00 11,5 7,6 10,6 8,4 7 4 13 7 NNE 1025,4 0 0,0
23.01.2020 21:00:00 12,2 7,3 11,0 8,4 8 4 15 8 NNE 1025,0 0 0,0
23.01.2020 20:00:00 11,9 7,6 11,3 8,4 9 5 27 15 E 1024,8 0 0,0
23.01.2020 19:00:00 12,1 7,6 11,2 8,3 11 6 21 11 E 1024,7 0 0,0
23.01.2020 18:00:00 12,3 7,6 11,5 8,2 13 7 18 10 ENE 1024,3 0 0,0
23.01.2020 17:00:00 12,5 8,0 11,9 8,0 9 5 13 7 NE 1024,0 0 0,0
23.01.2020 16:00:00 13,2 8,1 13,2 7,8 5 3 11 6 NE 1024,2 0 0,0
23.01.2020 15:00:00 13,6 7,4 13,9 7,4 9 5 21 12 ENE 1024,3 3 0,0
23.01.2020 14:00:00 14,1 7,2 12,7 7,1 16 9 27 14 NE 1024,7 20 0,0
23.01.2020 13:00:00 12,3 6,1 12,3 6,9 13 7 27 15 N 1025,4 0 0,0
23.01.2020 12:00:00 11,8 5,9 11,6 6,7 15 8 31 17 N 1025,8 0 0,0
23.01.2020 11:00:00 11,0 4,9 10,9 6,5 15 8 27 15 NNE 1026,5 0 0,0
23.01.2020 10:00:00 11,0 4,7 9,9 6,4 17 9 36 19 NNE 1026,1 2 0,0
23.01.2020 09:00:00 9,9 4,3 8,3 6,4 19 11 32 17 N 1025,9 0 0,0
23.01.2020 08:00:00 8,6 3,2 6,0 6,5 14 8 24 13 NNE 1026,0 0 0,0
23.01.2020 07:00:00 7,3 1,1 5,6 6,5 11 6 21 11 NNW 1025,9 0 0,0
23.01.2020 06:00:00 6,4 0,7 4,7 6,6 6 3 14 8 N 1026,4 0 0,0
23.01.2020 05:00:00 6,4 -0,1 4,7 6,6 2 1 11 6 NNE 1026,7 0 0,0
23.01.2020 04:00:00 6,8 -0,9 4,8 6,7 3 1 16 8 WNW 1026,8 0 0,0
23.01.2020 03:00:00 6,8 -1,1 5,0 6,8 4 2 17 9 N 1027,3 0 0,0
23.01.2020 02:00:00 6,8 -1,1 5,7 6,9 6 3 26 14 ENE 1026,9 0 0,0
23.01.2020 01:00:00 7,8 -1,2 6,8 7,0 9 5 27 15 NNW 1026,7 0 0,0
23.01.2020 00:00:00 8,1 -0,9 7,3 7,1 12 7 24 13 NNW 1026,8 0 0,0
22.01.2020 23:00:00 8,4 -0,9 7,6 7,1 10 6 27 15 NW 1027,1 0 0,0
22.01.2020 22:00:00 8,5 -0,5 7,6 7,2 14 7 26 14 NW 1027,0 0 0,0
22.01.2020 21:00:00 8,7 -0,1 4,9 7,4 13 7 26 14 NNW 1027,2 0 0,0
22.01.2020 20:00:00 7,8 0,3 5,8 7,5 0 0 29 15 N 1027,3 0 0,0
22.01.2020 19:00:00 9,3 0,2 8,6 7,5 17 9 34 18 NNW 1026,8 0 0,0
22.01.2020 18:00:00 9,4 0,5 8,8 7,5 17 9 36 20 NNW 1027,0 0 0,0
22.01.2020 17:00:00 10,0 1,1 9,5 7,4 13 7 25 14 NNW 1027,2 0 0,0
22.01.2020 16:00:00 10,0 1,6 10,0 7,2 12 7 26 14 NNW 1027,4 0 0,0
22.01.2020 15:00:00 10,1 2,2 10,4 7,0 14 8 25 13 NNW 1027,8 0 0,0
22.01.2020 14:00:00 10,9 2,7 11,4 6,8 13 7 27 14 NNW 1028,6 0 0,0
22.01.2020 13:00:00 11,0 2,8 11,5 6,5 14 8 29 16 N 1029,4 3 0,0
22.01.2020 12:00:00 9,6 3,8 8,8 6,4 12 7 28 15 NNW 1030,1 2 0,0
22.01.2020 11:00:00 8,8 2,8 6,7 6,2 12 6 26 14 NNW 1030,4 6 0,0
22.01.2020 10:00:00 7,0 2,5 5,0 6,2 13 7 27 15 NNW 1030,0 0 0,0
22.01.2020 09:00:00 6,0 2,3 4,2 6,2 14 8 32 18 NNW 1029,6 0 0,0
22.01.2020 08:00:00 5,6 2,2 4,1 6,2 16 9 33 18 NNW 1029,5 0 1,2
22.01.2020 07:00:00 6,7 0,6 5,5 6,2 16 9 38 20 NNW 1029,1 0 0,0
22.01.2020 06:00:00 6,6 0,3 5,5 6,2 19 10 39 21 NNW 1029,0 0 0,0
22.01.2020 05:00:00 7,2 -0,3 6,1 6,2 19 11 39 21 N 1029,4 0 0,0
22.01.2020 04:00:00 7,1 -1,3 6,4 6,2 17 9 34 19 NNW 1030,2 0 0,0
22.01.2020 03:00:00 6,9 -1,3 5,7 6,3 16 9 31 17 NNW 1030,8 0 0,0
22.01.2020 02:00:00 6,4 -1,8 5,6 6,4 16 9 33 18 NNW 1031,0 0 0,0
22.01.2020 01:00:00 6,7 -1,7 5,9 6,5 18 10 36 19 NNW 1031,5 0 0,0
22.01.2020 00:00:00 7,1 -1,3 6,4 6,5 16 9 36 19 N 1031,9 0 0,0
21.01.2020 23:00:00 7,2 -2,0 6,7 6,6 19 10 43 23 NNW 1032,3 0 0,0
21.01.2020 22:00:00 7,2 -1,8 6,4 6,6 21 11 37 20 NW 1032,6 0 0,0
21.01.2020 21:00:00 7,2 -1,0 6,6 6,6 18 10 34 18 NNW 1032,7 0 0,0
21.01.2020 20:00:00 7,7 -0,8 6,9 6,7 17 9 35 19 NNW 1033,0 0 0,0
21.01.2020 19:00:00 7,6 -0,9 6,8 6,7 16 8 33 18 NNW 1032,6 0 0,0
21.01.2020 18:00:00 7,7 -0,3 6,9 6,7 16 8 33 18 NNW 1032,6 0 0,0
21.01.2020 17:00:00 7,7 0,4 7,2 6,6 8 4 21 11 N 1032,7 0 0,0
21.01.2020 16:00:00 7,9 0,8 7,1 6,5 16 8 29 15 NNW 1032,7 0 0,0
21.01.2020 15:00:00 6,9 1,6 6,5 6,4 9 5 15 8 N 1033,8 0 0,0
21.01.2020 14:00:00 6,5 1,8 6,1 6,2 4 2 16 9 N 1034,6 0 0,0
21.01.2020 13:00:00 5,9 1,6 5,2 6,1 5 3 24 13 N 1035,4 0 0,0
21.01.2020 12:00:00 5,5 2,0 4,4 6,0 12 7 31 17 NNW 1036,0 0 0,2
21.01.2020 11:00:00 4,6 2,1 3,6 6,0 14 8 35 19 NNW 1036,2 0 0,2
21.01.2020 10:00:00 4,1 2,0 3,3 6,0 20 11 40 22 NW 1035,9 0 0,4
21.01.2020 09:00:00 3,8 2,0 3,1 6,1 20 11 38 20 NW 1035,6 0 0,8
21.01.2020 08:00:00 3,8 2,0 3,0 6,1 17 9 36 19 NW 1035,7 0 0,6
21.01.2020 07:00:00 3,7 1,6 3,0 6,1 21 11 37 20 NW 1035,5 0 0,6
21.01.2020 06:00:00 3,8 1,7 3,0 6,2 20 11 36 19 NW 1035,6 0 0,8
21.01.2020 05:00:00 3,9 1,6 3,1 6,2 19 11 32 17 NW 1036,0 0 0,8
21.01.2020 04:00:00 4,7 0,3 3,9 6,2 16 9 30 16 NW 1036,0 0 0,0
21.01.2020 03:00:00 4,8 0,2 3,4 6,2 14 7 28 15 NW 1036,4 0 0,0
21.01.2020 02:00:00 4,5 0,8 3,3 6,2 13 7 19 11 NW 1036,6 0 0,2
21.01.2020 01:00:00 5,6 -0,7 4,1 6,2 9 5 19 10 N 1037,0 0 0,0
21.01.2020 00:00:00 6,1 -1,6 5,7 6,2 7 4 20 11 N 1037,1 0 0,0
20.01.2020 23:00:00 6,2 -1,9 5,8 6,3 13 7 42 23 NNE 1037,0 0 0,0

tt = Température de l'air
td = dewpoint
tt 5cm = Température de l'air 5cm
tt -20cm = Température de l'air -20cm
ff = Vitesse du vent
fx = gusts
dd = Direction du vent
ppp = reduced air pressure
sd = Ensoleillement
rr = Quantités de précipitations

stations d'obs. à proximité